Time;durP1;ratioP1;P1;durP2;ratioP2;P2;SDS_P1;SDS_P2;PMS_P1;PMS_P2;Temp;Humidity;BMP_temperature;BMP_pressure;BME280_temperature;BME280_humidity;BME280_pressure;Samples;Min_cycle;Max_cycle;Signal;HPM_P1;HPM_P2
2021/06/13 00:01:57;;;;;;;6.93;6.23;;;22.20;92.20;;;;;;4997990;28;20487;-84
2021/06/13 00:04:23;;;;;;;6.63;6.10;;;22.20;92.40;;;;;;4994565;28;20295;-84
2021/06/13 00:06:52;;;;;;;8.10;7.10;;;22.20;92.50;;;;;;4988645;28;20193;-84
2021/06/13 00:09:22;;;;;;;6.93;6.23;;;22.20;92.30;;;;;;4976590;28;20212;-84
2021/06/13 00:11:49;;;;;;;7.43;5.40;;;22.20;92.20;;;;;;5001754;28;20463;-84
2021/06/13 00:14:15;;;;;;;6.63;6.00;;;22.10;92.30;;;;;;4993520;28;20574;-84
2021/06/13 00:16:42;;;;;;;6.90;6.20;;;22.00;92.60;;;;;;5000852;28;20543;-84
2021/06/13 00:19:08;;;;;;;6.63;5.93;;;22.00;92.60;;;;;;5001085;28;20455;-84
2021/06/13 00:21:33;;;;;;;7.13;6.43;;;22.10;92.70;;;;;;4997255;28;20477;-84
2021/06/13 00:23:59;;;;;;;6.23;5.70;;;22.10;92.70;;;;;;4997719;28;20209;-84
2021/06/13 00:26:25;;;;;;;7.53;6.03;;;22.10;92.60;;;;;;5002432;28;20205;-84
2021/06/13 00:28:52;;;;;;;6.77;6.07;;;22.00;92.60;;;;;;4991319;28;20208;-83
2021/06/13 00:31:18;;;;;;;7.20;6.37;;;21.90;93.00;;;;;;5002192;28;20780;-84
2021/06/13 00:33:44;;;;;;;6.40;5.80;;;22.10;92.70;;;;;;5002060;28;20518;-84
2021/06/13 00:36:09;;;;;;;6.60;6.00;;;22.00;92.80;;;;;;5002076;28;20523;-84
2021/06/13 00:38:36;;;;;;;6.40;5.53;;;22.00;93.10;;;;;;5006699;28;20284;-85
2021/06/13 00:41:01;;;;;;;10.57;6.40;;;22.10;92.80;;;;;;5005732;28;20244;-87
2021/06/13 00:43:27;;;;;;;6.77;5.90;;;22.10;92.60;;;;;;5002825;28;20437;-84
2021/06/13 00:45:53;;;;;;;7.27;5.97;;;22.00;92.60;;;;;;4998988;28;20903;-86
2021/06/13 00:48:19;;;;;;;6.43;5.90;;;22.10;92.60;;;;;;5001758;28;20197;-84
2021/06/13 00:50:50;;;;;;;8.07;6.40;;;22.10;92.70;;;;;;5003558;28;20260;-85
2021/06/13 00:53:17;;;;;;;6.73;6.03;;;22.10;92.70;;;;;;4999481;28;20210;-85
2021/06/13 00:55:43;;;;;;;7.73;5.83;;;22.00;92.80;;;;;;5003611;28;21039;-85
2021/06/13 00:58:09;;;;;;;6.67;5.87;;;21.80;93.10;;;;;;5004093;28;20444;-85
2021/06/13 01:00:38;;;;;;;7.77;5.70;;;21.80;93.00;;;;;;5006275;28;20500;-85
2021/06/13 01:03:04;;;;;;;6.73;6.13;;;21.90;92.80;;;;;;5009534;28;20449;-85
2021/06/13 01:05:31;;;;;;;6.83;6.13;;;21.90;92.90;;;;;;5007974;28;20424;-85
2021/06/13 01:08:22;;;;;;;7.20;5.70;;;21.70;93.10;;;;;;5009297;28;20455;-86
2021/06/13 01:11:16;;;;;;;7.37;5.80;;;21.70;93.30;;;;;;5001963;28;20452;-86
2021/06/13 01:14:04;;;;;;;6.90;5.90;;;21.70;93.50;;;;;;4997943;28;20457;-85
2021/06/13 01:16:48;;;;;;;8.53;5.97;;;21.60;93.30;;;;;;4999019;28;20507;-85
2021/06/13 01:19:32;;;;;;;9.33;5.93;;;21.60;93.10;;;;;;4999780;28;20405;-85
2021/06/13 01:22:12;;;;;;;8.63;5.83;;;21.50;93.30;;;;;;5006600;28;20441;-86
2021/06/13 01:25:01;;;;;;;8.77;6.47;;;21.60;93.20;;;;;;4998901;28;20429;-86
2021/06/13 01:27:44;;;;;;;6.83;6.13;;;21.60;93.20;;;;;;5003738;28;20432;-85
2021/06/13 01:30:10;;;;;;;6.63;5.93;;;21.50;93.50;;;;;;5010193;28;20441;-86
2021/06/13 01:32:37;;;;;;;7.07;5.83;;;21.50;93.70;;;;;;4999226;28;20491;-85
2021/06/13 01:35:13;;;;;;;8.40;6.03;;;21.50;93.20;;;;;;4999473;28;20456;-86
2021/06/13 01:37:42;;;;;;;6.80;5.60;;;21.50;93.20;;;;;;5004639;28;20440;-87
2021/06/13 01:40:14;;;;;;;6.63;5.93;;;21.20;93.90;;;;;;4997955;28;20409;-86
2021/06/13 01:42:44;;;;;;;6.23;5.63;;;21.20;93.70;;;;;;5005506;28;20445;-86
2021/06/13 01:45:12;;;;;;;6.80;5.60;;;21.30;93.60;;;;;;4999152;28;20423;-86
2021/06/13 01:47:39;;;;;;;6.80;5.50;;;21.40;93.40;;;;;;5002784;28;20417;-86
2021/06/13 01:50:07;;;;;;;6.20;5.60;;;21.40;93.50;;;;;;5000735;28;20559;-86
2021/06/13 01:52:35;;;;;;;6.30;5.73;;;21.40;93.20;;;;;;5004217;28;20519;-85
2021/06/13 01:55:02;;;;;;;7.10;5.90;;;21.40;93.30;;;;;;5012391;28;20509;-85
2021/06/13 01:57:28;;;;;;;6.53;5.83;;;21.10;93.00;;;;;;4998013;28;20472;-85
2021/06/13 01:59:56;;;;;;;7.20;5.60;;;21.10;93.10;;;;;;5002402;28;20444;-85
2021/06/13 02:02:23;;;;;;;7.20;6.30;;;21.10;93.10;;;;;;5000354;28;21057;-86
2021/06/13 02:04:50;;;;;;;5.20;4.80;;;21.10;93.10;;;;;;4990617;28;20419;-86
2021/06/13 02:07:17;;;;;;;7.00;5.30;;;21.20;93.10;;;;;;4995352;28;20424;-85
2021/06/13 02:09:47;;;;;;;7.17;5.20;;;21.20;93.00;;;;;;4994896;28;20515;-86
2021/06/13 02:12:13;;;;;;;5.67;5.17;;;21.10;93.00;;;;;;4996467;28;20450;-85
2021/06/13 02:14:43;;;;;;;11.20;4.97;;;21.10;92.90;;;;;;4995531;28;20473;-86
2021/06/13 02:17:09;;;;;;;6.40;5.50;;;21.10;92.80;;;;;;4970106;28;20343;-85
2021/06/13 02:19:39;;;;;;;5.87;5.30;;;21.10;92.90;;;;;;4997134;28;21149;-86
2021/06/13 02:22:07;;;;;;;6.53;5.53;;;21.20;92.90;;;;;;4977759;28;20453;-85
2021/06/13 02:24:37;;;;;;;5.93;5.33;;;20.90;92.90;;;;;;4993026;28;20428;-85
2021/06/13 02:27:04;;;;;;;5.50;5.00;;;20.90;93.10;;;;;;4993995;28;20502;-85
2021/06/13 02:29:32;;;;;;;10.47;6.07;;;20.80;93.30;;;;;;4991942;28;20440;-85
2021/06/13 02:31:59;;;;;;;6.60;5.57;;;20.90;93.00;;;;;;4994060;28;20472;-85
2021/06/13 02:34:28;;;;;;;7.23;5.60;;;20.80;93.20;;;;;;4995589;28;20745;-85
2021/06/13 02:36:58;;;;;;;6.20;5.60;;;20.60;93.10;;;;;;4998101;28;20421;-85
2021/06/13 02:39:24;;;;;;;5.77;5.17;;;20.30;93.40;;;;;;4994306;28;20455;-84
2021/06/13 02:41:51;;;;;;;5.73;5.20;;;20.50;93.10;;;;;;4985526;28;20992;-85
2021/06/13 02:44:18;;;;;;;7.73;5.83;;;20.50;93.10;;;;;;4996396;28;21024;-85
2021/06/13 02:46:44;;;;;;;6.70;5.43;;;20.50;93.40;;;;;;4984776;28;20477;-84
2021/06/13 02:49:11;;;;;;;7.63;5.20;;;20.50;93.30;;;;;;4994030;28;20447;-84
2021/06/13 02:51:58;;;;;;;7.13;5.43;;;20.50;93.00;;;;;;5001735;28;20560;-85
2021/06/13 02:54:26;;;;;;;13.20;5.27;;;20.40;93.20;;;;;;4986526;28;20479;-85
2021/06/13 02:57:04;;;;;;;6.20;4.97;;;20.40;93.00;;;;;;5003638;28;20919;-85
2021/06/13 02:59:59;;;;;;;11.67;5.43;;;20.30;93.10;;;;;;5003270;28;20416;-85
2021/06/13 03:02:28;;;;;;;5.00;4.60;;;20.20;93.30;;;;;;4997835;28;20456;-85
2021/06/13 03:04:54;;;;;;;5.63;5.13;;;20.20;93.30;;;;;;5004510;28;20472;-86
2021/06/13 03:07:23;;;;;;;5.83;5.17;;;20.30;93.30;;;;;;5005773;28;20428;-85
2021/06/13 03:09:50;;;;;;;9.90;5.77;;;20.40;93.50;;;;;;4997900;28;20515;-86
2021/06/13 03:12:19;;;;;;;10.33;5.30;;;20.50;93.30;;;;;;5000421;28;20725;-86
2021/06/13 03:14:49;;;;;;;6.07;5.43;;;20.60;93.00;;;;;;5003394;28;20468;-83
2021/06/13 03:17:21;;;;;;;5.20;4.50;;;20.60;92.90;;;;;;5004647;28;20460;-86
2021/06/13 03:19:48;;;;;;;7.20;4.30;;;20.40;93.10;;;;;;4998584;28;20456;-84
2021/06/13 03:22:15;;;;;;;8.30;5.10;;;20.30;93.30;;;;;;4996095;28;20921;-84
2021/06/13 03:24:44;;;;;;;5.83;4.60;;;20.40;93.10;;;;;;4995979;28;20425;-84
2021/06/13 03:27:10;;;;;;;5.40;4.43;;;20.30;93.30;;;;;;4984567;28;20441;-84
2021/06/13 03:29:41;;;;;;;4.77;4.37;;;20.10;93.40;;;;;;5002585;28;20909;-85
2021/06/13 03:32:08;;;;;;;9.27;4.70;;;20.20;93.30;;;;;;4999207;28;20461;-85
2021/06/13 03:34:36;;;;;;;7.20;5.10;;;20.10;93.70;;;;;;5000814;28;20471;-85
2021/06/13 03:37:03;;;;;;;8.33;4.93;;;19.90;93.80;;;;;;4991341;28;20468;-85
2021/06/13 03:39:30;;;;;;;4.93;4.53;;;19.80;93.90;;;;;;5000513;28;20437;-84
2021/06/13 03:41:55;;;;;;;6.70;5.10;;;19.70;94.30;;;;;;4998132;28;20498;-86
2021/06/13 03:44:22;;;;;;;6.37;4.67;;;19.90;94.10;;;;;;4989153;28;20930;-85
2021/06/13 03:46:48;;;;;;;5.30;4.80;;;19.70;93.90;;;;;;5000316;28;20197;-84
2021/06/13 03:49:17;;;;;;;7.40;5.83;;;19.80;94.00;;;;;;4993013;28;20428;-85
2021/06/13 03:51:43;;;;;;;10.67;5.33;;;19.70;94.20;;;;;;4998464;28;20462;-85
2021/06/13 03:54:10;;;;;;;6.00;5.33;;;19.90;93.70;;;;;;4996632;28;20701;-84
2021/06/13 03:56:46;;;;;;;6.23;5.13;;;20.00;93.80;;;;;;5000770;28;20513;-85
2021/06/13 03:59:16;;;;;;;6.23;5.57;;;19.80;94.50;;;;;;5000531;28;20436;-84
2021/06/13 04:01:43;;;;;;;8.10;5.50;;;19.90;94.40;;;;;;5003531;28;20605;-84
2021/06/13 04:04:11;;;;;;;6.60;5.47;;;20.00;94.10;;;;;;4998367;28;20436;-84
2021/06/13 04:06:38;;;;;;;7.07;4.90;;;20.00;94.30;;;;;;4999155;28;20882;-85
2021/06/13 04:09:05;;;;;;;5.80;5.00;;;19.70;95.00;;;;;;4996956;28;20439;-82
2021/06/13 04:11:35;;;;;;;8.73;5.10;;;19.80;95.10;;;;;;5002287;28;20493;-85
2021/06/13 04:14:03;;;;;;;4.83;4.43;;;20.00;94.90;;;;;;5004092;28;20472;-85
2021/06/13 04:16:29;;;;;;;6.03;5.00;;;20.00;94.90;;;;;;5006285;28;20416;-84
2021/06/13 04:18:56;;;;;;;6.00;4.70;;;19.90;94.30;;;;;;5003747;28;20425;-85
2021/06/13 04:21:22;;;;;;;5.47;4.30;;;20.00;94.10;;;;;;5003250;28;20284;-86
2021/06/13 04:23:49;;;;;;;7.30;4.90;;;20.00;94.00;;;;;;5003988;28;20437;-85
2021/06/13 04:26:18;;;;;;;5.10;4.30;;;20.00;93.90;;;;;;5000395;28;20806;-86
2021/06/13 04:28:44;;;;;;;8.70;5.07;;;19.90;93.90;;;;;;5003071;28;20452;-85
2021/06/13 04:31:15;;;;;;;8.37;5.60;;;19.80;94.50;;;;;;4971924;28;20483;-86
2021/06/13 04:33:46;;;;;;;7.30;4.33;;;19.60;94.40;;;;;;5011609;28;20480;-86
2021/06/13 04:36:14;;;;;;;6.90;4.50;;;19.70;94.90;;;;;;5024536;28;20405;-86
2021/06/13 04:38:40;;;;;;;12.30;4.97;;;19.70;94.50;;;;;;5024444;28;20527;-85
2021/06/13 04:41:07;;;;;;;4.50;4.10;;;19.80;94.50;;;;;;5012443;28;20517;-86
2021/06/13 04:43:35;;;;;;;5.80;4.60;;;19.80;94.50;;;;;;4997669;28;20457;-86
2021/06/13 04:46:02;;;;;;;5.80;4.93;;;19.70;94.30;;;;;;5001228;28;20440;-85
2021/06/13 04:48:28;;;;;;;4.80;4.00;;;19.60;94.30;;;;;;4999584;28;20460;-86
2021/06/13 04:50:57;;;;;;;6.30;4.33;;;19.50;94.70;;;;;;5005607;28;20509;-85
2021/06/13 04:53:47;;;;;;;7.03;4.60;;;19.50;94.40;;;;;;5003920;28;20228;-85
2021/06/13 04:56:34;;;;;;;6.07;4.57;;;19.40;94.50;;;;;;5001970;28;20433;-86
2021/06/13 04:59:01;;;;;;;6.33;4.70;;;19.40;94.40;;;;;;5006590;28;20443;-85
2021/06/13 05:01:27;;;;;;;4.90;3.83;;;19.20;94.90;;;;;;5002978;28;20476;-85
2021/06/13 05:03:53;;;;;;;8.13;5.17;;;19.30;94.80;;;;;;5012135;28;20436;-83
2021/06/13 05:06:20;;;;;;;4.47;4.03;;;19.30;95.10;;;;;;5005018;28;20448;-85
2021/06/13 05:08:46;;;;;;;6.00;4.57;;;19.40;94.90;;;;;;5006834;28;21185;-85
2021/06/13 05:11:11;;;;;;;7.23;5.13;;;19.20;95.20;;;;;;5002916;28;20462;-85
2021/06/13 05:13:37;;;;;;;5.13;4.30;;;19.20;95.20;;;;;;5003601;28;21035;-84
2021/06/13 05:16:04;;;;;;;4.97;4.43;;;19.30;95.10;;;;;;5000286;28;20669;-85
2021/06/13 05:18:32;;;;;;;7.90;4.40;;;19.40;95.30;;;;;;5004630;28;20433;-85
2021/06/13 05:20:58;;;;;;;5.53;4.40;;;19.40;95.30;;;;;;5005336;28;20486;-86
2021/06/13 05:23:27;;;;;;;8.63;4.90;;;19.30;95.60;;;;;;5004100;28;20449;-86
2021/06/13 05:25:55;;;;;;;6.17;5.07;;;19.40;95.70;;;;;;5013703;28;20427;-85
2021/06/13 05:28:22;;;;;;;6.37;4.70;;;19.40;95.60;;;;;;5014449;28;20437;-87
2021/06/13 05:30:48;;;;;;;8.50;4.67;;;19.40;95.60;;;;;;5023496;28;20420;-86
2021/06/13 05:33:15;;;;;;;6.47;4.57;;;19.60;95.30;;;;;;5014972;28;20455;-86
2021/06/13 05:35:42;;;;;;;6.17;4.40;;;19.60;95.40;;;;;;5010986;28;20440;-85
2021/06/13 05:38:09;;;;;;;9.07;4.87;;;19.50;95.40;;;;;;4996525;28;20453;-85
2021/06/13 05:40:36;;;;;;;6.17;4.40;;;19.50;95.80;;;;;;5010771;28;20483;-86
2021/06/13 05:43:02;;;;;;;7.33;4.87;;;19.50;96.00;;;;;;5002649;28;20443;-86
2021/06/13 05:45:30;;;;;;;13.83;4.80;;;19.50;95.70;;;;;;4993780;28;20455;-86
2021/06/13 05:47:58;;;;;;;7.17;5.00;;;19.50;95.50;;;;;;4995396;28;20795;-85
2021/06/13 05:50:24;;;;;;;5.10;4.50;;;19.50;95.50;;;;;;4997925;28;20482;-86
2021/06/13 05:52:50;;;;;;;6.17;4.93;;;19.50;95.40;;;;;;5000038;28;20469;-86
2021/06/13 05:55:19;;;;;;;7.50;4.77;;;19.50;95.40;;;;;;4986200;28;20449;-86
2021/06/13 05:57:47;;;;;;;6.40;4.27;;;19.60;95.50;;;;;;4993936;28;20444;-85
2021/06/13 06:00:15;;;;;;;4.63;4.20;;;19.50;95.60;;;;;;4994411;28;20877;-86
2021/06/13 06:02:42;;;;;;;9.97;5.70;;;19.50;95.30;;;;;;4999392;28;20443;-86
2021/06/13 06:05:09;;;;;;;7.00;5.17;;;19.50;95.40;;;;;;4997165;28;20437;-86
2021/06/13 06:07:35;;;;;;;6.00;4.90;;;19.50;95.60;;;;;;4995046;28;20571;-85
2021/06/13 06:10:00;;;;;;;9.50;5.20;;;19.50;95.40;;;;;;4992116;28;20511;-86
2021/06/13 06:12:26;;;;;;;8.20;5.60;;;19.50;95.70;;;;;;4983253;28;20217;-86
2021/06/13 06:14:52;;;;;;;8.33;5.10;;;19.50;95.50;;;;;;4993203;28;20220;-86
2021/06/13 06:17:19;;;;;;;12.10;5.60;;;19.40;95.60;;;;;;5000314;28;20190;-86
2021/06/13 06:19:45;;;;;;;11.43;5.63;;;19.40;95.90;;;;;;4996661;28;20445;-85
2021/06/13 06:22:10;;;;;;;7.07;4.60;;;19.40;95.60;;;;;;5000575;28;20468;-85
2021/06/13 06:24:39;;;;;;;7.13;4.77;;;19.40;96.10;;;;;;5008987;28;20185;-85
2021/06/13 06:27:05;;;;;;;6.40;4.80;;;19.50;95.70;;;;;;5008140;28;20189;-86
2021/06/13 06:29:31;;;;;;;4.97;4.33;;;19.40;95.70;;;;;;5001639;28;20444;-86
2021/06/13 06:31:57;;;;;;;7.73;4.90;;;19.40;96.30;;;;;;5001387;28;20510;-86
2021/06/13 06:34:24;;;;;;;6.93;4.63;;;19.40;95.90;;;;;;5006143;28;20472;-86
2021/06/13 06:36:50;;;;;;;5.20;4.30;;;19.50;96.30;;;;;;5005119;28;20496;-86
2021/06/13 06:39:16;;;;;;;5.80;5.20;;;19.50;96.20;;;;;;5002952;28;20546;-85
2021/06/13 06:41:42;;;;;;;7.57;4.33;;;19.60;96.70;;;;;;5000311;28;20490;-86
2021/06/13 06:44:08;;;;;;;5.80;4.40;;;19.50;96.40;;;;;;5008307;28;20479;-86
2021/06/13 06:46:36;;;;;;;8.23;4.63;;;19.50;96.40;;;;;;5007526;28;20622;-86
2021/06/13 06:49:03;;;;;;;7.90;4.90;;;19.40;96.70;;;;;;5005363;28;20958;-87
2021/06/13 06:51:28;;;;;;;6.40;4.90;;;19.40;97.00;;;;;;5001071;28;20526;-82
2021/06/13 06:53:58;;;;;;;5.20;4.67;;;19.50;97.10;;;;;;5006865;28;20468;-87
2021/06/13 06:56:24;;;;;;;5.07;4.57;;;19.60;97.00;;;;;;4990593;28;20218;-87
2021/06/13 06:58:50;;;;;;;6.40;4.50;;;19.60;97.20;;;;;;5003102;28;20468;-87
2021/06/13 07:01:16;;;;;;;8.60;4.43;;;19.70;97.00;;;;;;5004695;28;20500;-85
2021/06/13 07:03:42;;;;;;;6.23;4.90;;;19.70;97.40;;;;;;4991297;28;20465;-86
2021/06/13 07:06:08;;;;;;;8.70;4.90;;;19.60;97.00;;;;;;5003213;28;20177;-87
2021/06/13 07:08:34;;;;;;;6.30;4.50;;;19.70;96.90;;;;;;5006941;28;20449;-86
2021/06/13 07:11:00;;;;;;;7.40;4.93;;;19.90;96.70;;;;;;5008473;28;20283;-87
2021/06/13 07:13:25;;;;;;;10.73;5.03;;;19.90;96.90;;;;;;5003744;28;20472;-85
2021/06/13 07:15:51;;;;;;;6.10;4.13;;;20.00;96.30;;;;;;5005415;28;20574;-86
2021/06/13 07:18:17;;;;;;;5.60;4.30;;;20.00;96.30;;;;;;5007376;28;20201;-85
2021/06/13 07:20:46;;;;;;;4.83;4.10;;;20.10;96.20;;;;;;4983719;28;20207;-86
2021/06/13 07:23:12;;;;;;;7.73;4.80;;;20.10;96.00;;;;;;5007006;28;20224;-86
2021/06/13 07:25:37;;;;;;;7.67;4.40;;;20.00;96.00;;;;;;5005268;28;20440;-86
2021/06/13 07:28:05;;;;;;;6.67;5.00;;;20.20;96.10;;;;;;5004570;28;20437;-87
2021/06/13 07:30:32;;;;;;;8.97;4.57;;;20.30;95.70;;;;;;5008561;28;20185;-86
2021/06/13 07:32:58;;;;;;;4.97;4.57;;;20.30;95.70;;;;;;5000163;28;20504;-86
2021/06/13 07:35:24;;;;;;;5.83;4.17;;;20.30;95.70;;;;;;5008186;28;20432;-87
2021/06/13 07:37:50;;;;;;;4.97;4.27;;;20.20;96.10;;;;;;5003566;28;20523;-87
2021/06/13 07:40:18;;;;;;;6.23;5.00;;;20.40;95.70;;;;;;5006091;28;20190;-87
2021/06/13 07:42:44;;;;;;;4.37;3.97;;;20.40;95.60;;;;;;5009991;28;20201;-87
2021/06/13 07:45:11;;;;;;;7.47;5.00;;;20.50;96.10;;;;;;5007648;28;20448;-86
2021/06/13 07:47:38;;;;;;;9.43;4.87;;;20.50;95.70;;;;;;5002860;28;20809;-86
2021/06/13 07:50:06;;;;;;;5.40;4.47;;;20.60;95.50;;;;;;5008540;28;20437;-85
2021/06/13 07:52:32;;;;;;;5.13;4.03;;;20.50;95.60;;;;;;5005314;28;20496;-86
2021/06/13 07:55:07;;;;;;;11.33;6.53;;;20.50;95.70;;;;;;5007304;28;20437;-86
2021/06/13 07:57:36;;;;;;;5.33;4.80;;;20.60;95.90;;;;;;5009172;28;20464;-86
2021/06/13 08:00:04;;;;;;;7.93;5.10;;;20.60;95.50;;;;;;5005988;28;20416;-87
2021/06/13 08:02:30;;;;;;;6.07;4.80;;;20.60;95.40;;;;;;4999687;28;20453;-87
2021/06/13 08:05:00;;;;;;;7.17;4.60;;;20.60;95.70;;;;;;5008314;28;20459;-85
2021/06/13 08:07:26;;;;;;;6.20;4.27;;;20.50;95.60;;;;;;5012151;28;20697;-86
2021/06/13 08:09:52;;;;;;;6.97;4.30;;;20.50;95.70;;;;;;5016167;28;20455;-86
2021/06/13 08:12:19;;;;;;;6.40;3.87;;;20.70;95.70;;;;;;4999563;28;20245;-86
2021/06/13 08:14:47;;;;;;;6.97;4.87;;;20.80;95.40;;;;;;5012774;28;20479;-86
2021/06/13 08:17:13;;;;;;;5.60;4.80;;;20.70;95.10;;;;;;5012390;28;20420;-85
2021/06/13 08:19:39;;;;;;;7.87;4.80;;;20.70;95.20;;;;;;5012711;28;20452;-85
2021/06/13 08:22:05;;;;;;;6.33;5.20;;;20.70;95.60;;;;;;5009753;28;20244;-86
2021/06/13 08:24:31;;;;;;;5.30;4.80;;;20.70;95.40;;;;;;4997987;28;20213;-86
2021/06/13 08:26:56;;;;;;;5.30;4.60;;;20.70;95.10;;;;;;5014070;28;21204;-85
2021/06/13 08:29:22;;;;;;;7.40;4.80;;;20.80;95.00;;;;;;5003222;28;20189;-85
2021/06/13 08:31:48;;;;;;;4.80;4.17;;;20.80;95.10;;;;;;5009360;28;20229;-85
2021/06/13 08:34:14;;;;;;;6.30;4.83;;;20.90;94.80;;;;;;5008252;28;20201;-85
2021/06/13 08:36:39;;;;;;;7.67;4.83;;;20.80;95.00;;;;;;5015288;28;20447;-86
2021/06/13 08:39:05;;;;;;;6.80;5.47;;;20.80;95.00;;;;;;5010549;28;20313;-86
2021/06/13 08:41:31;;;;;;;4.93;4.43;;;20.90;94.50;;;;;;5010211;28;20225;-86
2021/06/13 08:44:10;;;;;;;6.33;4.90;;;21.00;94.60;;;;;;5003064;28;20212;-87
2021/06/13 08:46:38;;;;;;;6.40;4.27;;;21.10;95.10;;;;;;5009364;28;20463;-87
2021/06/13 08:49:04;;;;;;;6.67;4.60;;;21.20;93.90;;;;;;5017320;28;20474;-87
2021/06/13 08:51:31;;;;;;;5.23;4.60;;;21.10;93.60;;;;;;5010202;28;20461;-87
2021/06/13 08:53:57;;;;;;;10.10;5.70;;;21.00;93.50;;;;;;5009807;28;20553;-87
2021/06/13 08:56:23;;;;;;;9.40;4.27;;;21.00;93.60;;;;;;5009932;28;20448;-87
2021/06/13 08:58:51;;;;;;;5.23;4.20;;;20.90;93.60;;;;;;5007954;28;20178;-87
2021/06/13 09:01:17;;;;;;;6.80;4.63;;;21.00;93.10;;;;;;5017686;28;20465;-86
2021/06/13 09:03:44;;;;;;;8.50;4.33;;;20.90;93.00;;;;;;5021130;28;20451;-86
2021/06/13 09:06:11;;;;;;;6.70;5.00;;;20.90;93.20;;;;;;5008907;28;20463;-86
2021/06/13 09:08:39;;;;;;;4.67;4.17;;;21.00;93.10;;;;;;5010248;28;20425;-87
2021/06/13 09:11:22;;;;;;;8.10;4.47;;;21.10;92.80;;;;;;5008868;28;20440;-85
2021/06/13 09:13:53;;;;;;;11.03;4.60;;;21.20;92.60;;;;;;5013249;28;21107;-85
2021/06/13 09:16:27;;;;;;;8.50;5.60;;;21.20;93.00;;;;;;5008536;28;20433;-84
2021/06/13 09:18:53;;;;;;;6.80;6.03;;;21.30;92.70;;;;;;5005655;28;20815;-85
2021/06/13 09:21:20;;;;;;;9.90;5.10;;;21.40;92.40;;;;;;5006604;28;20496;-85
2021/06/13 09:23:46;;;;;;;6.73;4.40;;;21.30;92.10;;;;;;5011541;28;20429;-86
2021/06/13 09:26:16;;;;;;;5.13;4.30;;;21.30;92.00;;;;;;5005042;28;20433;-86
2021/06/13 09:28:45;;;;;;;9.07;4.40;;;21.30;92.10;;;;;;5013655;28;20496;-83
2021/06/13 09:31:16;;;;;;;7.23;4.57;;;21.50;91.70;;;;;;5017897;28;20456;-84
2021/06/13 09:33:44;;;;;;;6.17;4.50;;;21.50;91.40;;;;;;5011080;28;20460;-85
2021/06/13 09:36:28;;;;;;;8.93;4.37;;;21.40;91.70;;;;;;4994216;28;20792;-85
2021/06/13 09:38:58;;;;;;;5.40;4.43;;;21.50;91.30;;;;;;5001443;28;20573;-83
2021/06/13 09:41:24;;;;;;;11.60;4.70;;;21.60;90.80;;;;;;4986925;28;20479;-83
2021/06/13 09:43:51;;;;;;;7.23;4.53;;;21.60;91.00;;;;;;4998136;28;21106;-83
2021/06/13 09:46:20;;;;;;;5.00;4.50;;;21.70;90.80;;;;;;4998886;28;20531;-83
2021/06/13 09:48:48;;;;;;;4.57;4.00;;;21.60;90.60;;;;;;4995189;28;21085;-82
2021/06/13 09:51:20;;;;;;;4.40;4.00;;;21.60;90.80;;;;;;4994576;28;20477;-83
2021/06/13 09:53:48;;;;;;;4.57;4.17;;;21.70;90.70;;;;;;4994444;28;20464;-83
2021/06/13 09:56:24;;;;;;;4.60;3.67;;;21.80;90.70;;;;;;4995947;28;20437;-83
2021/06/13 09:59:11;;;;;;;6.40;4.50;;;21.90;90.60;;;;;;4994022;28;20516;-83
2021/06/13 10:01:49;;;;;;;8.87;4.00;;;21.90;88.50;;;;;;4994952;28;20476;-83
2021/06/13 10:04:18;;;;;;;4.30;3.90;;;21.90;88.70;;;;;;4998970;28;21353;-83
2021/06/13 10:06:54;;;;;;;5.90;3.90;;;21.80;88.70;;;;;;4997496;28;20982;-83
2021/06/13 10:09:41;;;;;;;7.73;4.10;;;22.00;88.40;;;;;;4994062;28;20431;-82
2021/06/13 10:12:11;;;;;;;5.83;4.40;;;22.00;88.00;;;;;;5002075;28;20456;-83
2021/06/13 10:14:38;;;;;;;4.07;3.60;;;21.90;87.30;;;;;;4998133;28;20480;-83
2021/06/13 10:17:04;;;;;;;9.43;3.80;;;22.00;85.50;;;;;;4998018;28;20433;-82
2021/06/13 10:19:48;;;;;;;4.13;3.63;;;22.00;84.70;;;;;;4995758;28;20420;-83
2021/06/13 10:22:17;;;;;;;3.53;3.23;;;22.00;83.50;;;;;;4995840;28;20495;-83
2021/06/13 10:24:46;;;;;;;5.20;4.03;;;21.70;84.10;;;;;;4996838;28;20479;-83
2021/06/13 10:27:20;;;;;;;5.40;3.93;;;21.70;83.50;;;;;;5001392;28;20990;-83
2021/06/13 10:29:51;;;;;;;6.13;3.90;;;21.90;84.10;;;;;;4995294;28;20451;-82
2021/06/13 10:32:20;;;;;;;11.70;3.77;;;22.00;83.30;;;;;;4998845;28;21150;-83
2021/06/13 10:34:49;;;;;;;7.23;4.63;;;22.00;82.70;;;;;;4991413;28;20995;-83
2021/06/13 10:37:15;;;;;;;4.60;3.90;;;22.00;81.40;;;;;;4992197;28;20472;-83
2021/06/13 10:39:41;;;;;;;5.20;3.63;;;22.10;81.00;;;;;;4998811;28;20452;-84
2021/06/13 10:42:13;;;;;;;6.50;5.53;;;22.10;81.30;;;;;;4993686;28;20453;-83
2021/06/13 10:44:56;;;;;;;10.37;6.80;;;22.30;80.80;;;;;;4996583;28;20596;-82
2021/06/13 10:47:22;;;;;;;6.00;4.70;;;22.50;80.80;;;;;;5003331;28;20467;-82
2021/06/13 10:49:49;;;;;;;7.10;3.57;;;22.60;79.40;;;;;;4997305;28;20516;-82
2021/06/13 10:52:23;;;;;;;6.23;4.47;;;22.60;78.70;;;;;;5003072;28;20661;-81
2021/06/13 10:54:54;;;;;;;5.47;4.27;;;22.80;78.40;;;;;;5008164;28;20534;-82
2021/06/13 10:57:20;;;;;;;6.53;4.17;;;22.90;77.60;;;;;;5000301;28;20452;-81
2021/06/13 10:59:53;;;;;;;7.00;4.17;;;22.90;76.20;;;;;;5005028;28;20452;-82
2021/06/13 11:02:22;;;;;;;3.87;3.50;;;23.10;75.60;;;;;;5005976;28;20433;-83
2021/06/13 11:04:54;;;;;;;5.00;3.80;;;23.20;77.60;;;;;;5006527;28;20441;-83
2021/06/13 11:07:35;;;;;;;4.70;3.70;;;23.40;75.80;;;;;;5012372;28;21253;-83
2021/06/13 11:10:19;;;;;;;7.13;4.37;;;23.40;73.50;;;;;;5010280;28;20451;-82
2021/06/13 11:13:01;;;;;;;7.00;3.60;;;23.50;74.10;;;;;;5007644;28;20470;-82
2021/06/13 11:15:38;;;;;;;5.63;3.70;;;23.50;71.10;;;;;;5011901;28;20425;-83
2021/06/13 11:18:16;;;;;;;5.43;3.33;;;23.50;71.90;;;;;;5010040;28;20440;-84
2021/06/13 11:20:48;;;;;;;3.83;3.40;;;23.60;69.20;;;;;;5005330;28;20833;-84
2021/06/13 11:23:35;;;;;;;3.10;2.70;;;23.60;67.90;;;;;;5003441;28;20432;-83
2021/06/13 11:26:03;;;;;;;3.60;2.90;;;23.70;67.70;;;;;;5002666;28;20431;-83
2021/06/13 11:28:41;;;;;;;3.53;3.23;;;23.90;69.30;;;;;;5010363;28;20454;-83
2021/06/13 11:31:10;;;;;;;8.10;5.27;;;24.00;70.00;;;;;;5013632;28;20447;-83
2021/06/13 11:33:44;;;;;;;5.33;4.47;;;24.20;70.00;;;;;;5009353;28;20472;-82
2021/06/13 11:36:15;;;;;;;9.63;3.80;;;24.40;68.80;;;;;;5014438;28;20425;-83
2021/06/13 11:38:43;;;;;;;4.33;3.93;;;24.50;66.60;;;;;;5013934;28;20505;-83
2021/06/13 11:41:21;;;;;;;3.43;3.13;;;24.60;67.00;;;;;;5017103;28;20505;-84
2021/06/13 11:43:47;;;;;;;3.67;3.37;;;24.70;66.80;;;;;;5011480;28;20493;-83
2021/06/13 11:46:28;;;;;;;4.53;2.97;;;25.00;65.70;;;;;;5005371;28;20429;-83
2021/06/13 11:48:54;;;;;;;10.17;3.70;;;25.00;62.30;;;;;;4998487;28;20193;-83
2021/06/13 11:51:20;;;;;;;5.83;3.87;;;25.30;61.70;;;;;;4994871;28;20540;-83
2021/06/13 11:54:06;;;;;;;4.03;3.03;;;25.60;60.40;;;;;;4996832;28;20476;-83
2021/06/13 11:56:39;;;;;;;3.70;3.37;;;25.80;60.60;;;;;;4996107;28;20213;-83
2021/06/13 11:59:24;;;;;;;3.60;2.80;;;26.30;59.70;;;;;;4995560;28;21249;-83
2021/06/13 12:02:01;;;;;;;9.10;3.10;;;26.80;57.30;;;;;;4985524;28;20467;-83
2021/06/13 12:04:29;;;;;;;5.23;3.50;;;28.00;55.20;;;;;;4992689;28;20463;-84
2021/06/13 12:06:58;;;;;;;3.20;2.90;;;30.20;53.80;;;;;;4995057;28;20441;-83
2021/06/13 12:09:25;;;;;;;2.70;2.50;;;32.10;50.50;;;;;;4996488;28;20480;-83
2021/06/13 12:11:53;;;;;;;3.30;3.00;;;33.10;46.30;;;;;;4996237;28;20948;-84
2021/06/13 12:14:41;;;;;;;3.63;3.33;;;34.50;44.70;;;;;;4994992;28;20548;-84
2021/06/13 12:17:25;;;;;;;3.93;3.40;;;36.40;44.10;;;;;;4996741;28;20416;-83
2021/06/13 12:20:01;;;;;;;4.10;2.83;;;36.80;40.70;;;;;;4987085;28;20689;-84
2021/06/13 12:27:51;;;;;;;2.60;2.40;;;37.80;31.70;;;;;;4999873;28;20464;-84
2021/06/13 12:30:25;;;;;;;3.27;2.97;;;38.40;32.50;;;;;;4996711;28;20426;-84
2021/06/13 12:32:55;;;;;;;3.30;2.70;;;39.20;32.70;;;;;;4996407;28;21467;-84
2021/06/13 12:35:21;;;;;;;4.17;2.67;;;40.00;31.70;;;;;;4994660;28;20495;-84
2021/06/13 12:37:56;;;;;;;3.07;2.87;;;38.10;30.10;;;;;;5002046;28;20432;-86
2021/06/13 12:40:22;;;;;;;5.53;2.73;;;36.60;32.20;;;;;;5010671;28;20389;-85
2021/06/13 12:42:48;;;;;;;3.00;2.80;;;37.40;32.30;;;;;;5008465;28;20460;-84
2021/06/13 12:45:16;;;;;;;3.40;2.50;;;37.40;29.50;;;;;;5002293;28;21087;-82
2021/06/13 12:47:45;;;;;;;2.67;2.47;;;36.90;30.00;;;;;;4998197;28;20186;-84
2021/06/13 12:50:35;;;;;;;2.60;2.40;;;37.20;28.80;;;;;;4997550;28;20446;-86
2021/06/13 12:53:04;;;;;;;3.33;2.47;;;38.40;29.30;;;;;;4991633;28;20460;-84
2021/06/13 12:55:38;;;;;;;2.60;2.40;;;39.30;29.00;;;;;;4995856;28;20501;-85
2021/06/13 12:58:15;;;;;;;4.40;2.80;;;40.40;29.60;;;;;;4998666;28;20431;-85
2021/06/13 13:00:42;;;;;;;2.70;2.50;;;40.70;30.10;;;;;;4995494;28;20432;-85
2021/06/13 13:03:11;;;;;;;2.90;2.27;;;41.60;28.70;;;;;;4998110;28;20516;-85